Terminal Aerodrome Forecast
Issued by NWS

Home | Current Version | Previous Version | Text Only | Print | Product List | Glossary On
Versions: 1 2 3 4 5 6 7 8 9 10 11 12 13 14 15
000
FTUS42 KTBW 232335
TAFPGD
TAF
KPGD 232335Z 2400/2424 06009KT P6SM FEW040 BKN090
     FM240200 06005KT P6SM SCT100 BKN250
     FM241400 07007KT P6SM SCT030 BKN100
     FM241800 08008KT P6SM VCTS SCT030CB BKN050=

USA.gov is the U.S. government's official web portal to all federal, state and local government web resources and services.